Latest Weather Observations for Townsville

IDQ60801

Issued at 9:02 am EST Wednesday 18 January 2017 (issued every 30 minutes, with the page automatically refreshed every 10 minutes)

About weather observations | Map of weather stations | Latest weather observations for QLD | Other Formats
Station Details ID: 032040 Name: TOWNSVILLE AERO Lat: -19.25 Lon: 146.77 Height: 4.34 m
Data from the previous 72 hours. | See also: Recent months at Townsville
Date/Time
EST
Temp
°C
App
Temp
°C
Dew
Point
°C
Rel
Hum
%
Delta-T
°C
Wind Press
QNH
hPa
Press
MSL
hPa
Rain since
9am
mm
Dir  Spd
km/h
Gust
km/h
Spd
kts
Gust
kts
18/09:00am 29.8 32.2 22.3 64 5.1 ENE 13 19 7 10 1013.7 1013.6 0.0
18/08:30am 29.1 33.4 23.3 71 4.0 ESE 6 13 3 7 1013.7 1013.6 0.0
18/08:00am 28.9 32.0 23.5 72 3.7 SE 13 17 7 9 1013.7 1013.6 0.0
18/07:30am 28.2 31.1 23.1 74 3.5 SE 13 17 7 9 1013.6 1013.5 0.0
18/07:00am 27.5 31.1 23.1 77 3.0 SE 9 13 5 7 1013.4 1013.3 0.0
18/06:30am 26.2 31.9 23.7 86 1.7 CALM 0 0 0 0 1013.2 1013.1 0.0
18/06:00am 25.6 29.7 23.2 86 1.6 SSE 7 9 4 5 1013.0 1012.9 0.0
18/05:30am 26.0 29.7 23.2 84 1.9 S 9 11 5 6 1012.6 1012.5 0.0
18/05:00am 26.0 29.1 22.9 83 2.1 SSE 11 13 6 7 1012.2 1012.1 0.0
18/04:30am 25.9 30.1 23.4 86 1.7 S 7 11 4 6 1011.7 1011.6 0.0
18/04:00am 26.2 30.3 23.3 84 2.0 SSE 7 11 4 6 1011.4 1011.3 0.0
18/03:30am 26.2 29.2 23.3 84 2.0 SE 13 15 7 8 1011.4 1011.3 0.0
18/03:00am 26.7 29.2 23.2 81 2.4 ESE 15 20 8 11 1011.4 1011.3 0.0
18/02:30am 26.6 29.6 23.4 82 2.2 ESE 13 17 7 9 1011.4 1011.3 0.0
18/02:00am 26.8 29.2 23.6 82 2.2 ESE 17 20 9 11 1011.6 1011.5 0.0
18/01:30am 26.9 30.1 23.7 82 2.2 SE 13 17 7 9 1011.6 1011.5 0.0
18/01:00am 26.9 30.7 23.4 81 2.4 SE 9 13 5 7 1011.9 1011.8 0.0
18/12:30am 26.9 30.4 23.5 81 2.3 SE 11 15 6 8 1012.3 1012.2 0.0
18/12:00am 27.2 31.1 23.6 81 2.5 ESE 9 13 5 7 1012.9 1012.8 0.0
 
Date/Time
EST
Temp
°C
App
Temp
°C
Dew
Point
°C
Rel
Hum
%
Delta-T
°C
Wind Press
QNH
hPa
Press
MSL
hPa
Rain since
9am
mm
Dir  Spd
km/h
Gust
km/h
Spd
kts
Gust
kts
17/11:30pm 27.1 31.0 23.6 81 2.4 SSE 9 11 5 6 1013.2 1013.1 0.0
17/11:00pm 26.8 30.7 23.6 82 2.2 S 9 11 5 6 1013.4 1013.3 0.0
17/10:30pm 27.0 31.1 23.3 80 2.5 SE 7 9 4 5 1013.7 1013.6 0.0
17/10:00pm 27.2 29.9 22.9 77 2.9 ESE 13 15 7 8 1013.4 1013.3 0.0
17/09:30pm 27.3 30.6 23.2 78 2.8 SE 11 15 6 8 1013.2 1013.1 0.0
17/09:00pm 27.2 30.7 23.6 81 2.5 SE 11 15 6 8 1013.0 1012.9 0.0
17/08:30pm 27.2 29.6 24.2 84 2.1 SE 19 24 10 13 1012.9 1012.8 0.0
17/08:00pm 27.3 30.2 24.4 84 2.0 ESE 17 22 9 12 1012.7 1012.6 0.0
17/07:30pm 27.3 29.7 24.3 84 2.1 ESE 19 26 10 14 1012.3 1012.2 0.0
17/07:00pm 27.3 29.8 24.4 84 2.0 SE 19 22 10 12 1012.2 1012.1 0.0
17/06:30pm 27.7 29.7 23.9 80 2.6 ESE 20 28 11 15 1012.0 1011.9 0.0
17/06:00pm 27.5 27.7 23.4 78 2.8 ESE 28 33 15 18 1011.9 1011.8 0.0
17/05:30pm 28.2 28.3 23.9 77 3.0 ESE 30 37 16 20 1011.6 1011.5 0.0
17/05:00pm 28.6 30.8 24.3 77 3.0 ESE 20 26 11 14 1011.1 1011.0 0.0
17/04:30pm 28.7 29.5 24.5 78 2.9 E 28 33 15 18 1011.0 1010.9 0.0
17/04:00pm 29.7 30.2 23.9 71 4.0 ENE 28 33 15 18 1011.1 1011.0 0.0
17/03:30pm 30.0 30.9 24.6 73 3.8 ENE 28 33 15 18 1011.0 1010.9 0.0
17/03:00pm 30.0 30.9 24.6 73 3.8 ENE 28 35 15 19 1011.0 1010.9 0.0
17/02:30pm 30.2 31.1 24.6 72 3.9 ENE 28 33 15 18 1011.2 1011.1 0.0
17/02:00pm 30.2 31.5 25.2 74 3.5 ENE 28 33 15 18 1011.5 1011.4 0.0
17/01:30pm 30.6 32.3 24.1 68 4.5 ENE 22 30 12 16 1011.8 1011.7 0.0
17/01:00pm 30.6 31.9 23.3 65 5.0 ENE 22 28 12 15 1012.3 1012.2 0.0
17/12:30pm 30.5 32.3 25.4 74 3.6 ENE 26 32 14 17 1012.6 1012.5 0.0
17/12:00pm 30.2 32.2 25.1 74 3.6 ENE 24 32 13 17 1012.8 1012.7 0.0
17/11:30am 29.7 32.7 25.2 77 3.2 ENE 19 22 10 12 1013.2 1013.1 0.0
17/11:00am 29.6 32.6 25.2 77 3.1 ENE 19 24 10 13 1013.4 1013.3 0.0
17/10:30am 29.8 32.2 23.7 70 4.2 ENE 17 22 9 12 1013.5 1013.4 0.0
17/10:00am 29.9 34.1 25.4 77 3.2 ENE 13 17 7 9 1013.7 1013.6 0.0
17/09:30am 28.8 32.5 24.6 78 2.9 NE 13 17 7 9 1013.7 1013.6 0.0
17/09:00am 28.4 32.3 24.2 78 2.9 NE 11 17 6 9 1013.7 1013.6 4.6
17/08:30am 27.9 31.9 23.8 78 2.8 E 9 13 5 7 1013.3 1013.2 4.6
17/08:00am 28.2 32.1 24.2 79 2.8 ESE 11 15 6 8 1013.3 1013.2 4.6
17/07:30am 27.6 31.9 24.3 82 2.3 ESE 9 13 5 7 1013.1 1013.0 4.6
17/07:00am 26.4 30.8 23.8 85 1.8 ESE 7 11 4 6 1012.9 1012.8 4.6
17/06:30am 26.0 30.4 24.4 91 1.1 SSE 9 11 5 6 1012.3 1012.2 4.6
17/06:00am 25.4 28.8 24.1 92 0.9 SE 13 15 7 8 1011.9 1011.8 4.6
17/05:30am 25.5 30.2 24.3 93 0.8 SSE 7 9 4 5 1011.8 1011.7 4.6
17/05:00am 25.6 30.1 24.6 94 0.7 S 9 13 5 7 1011.2 1011.1 4.6
17/04:30am 25.6 29.7 24.6 94 0.7 SSE 11 13 6 7 1010.9 1010.8 4.6
17/04:00am 25.7 29.5 24.1 91 1.1 S 11 11 6 6 1010.9 1010.8 4.6
17/03:30am 25.6 30.1 23.9 90 1.2 E 7 9 4 5 1010.8 1010.7 4.6
17/03:00am 25.7 29.5 23.4 87 1.6 NNE 9 13 5 7 1010.8 1010.7 4.6
17/02:49am 25.8 29.3 24.2 91 1.1 NE 13 17 7 9 1010.7 1010.6 4.6
17/02:32am 26.1 29.0 24.4 90 1.2 ENE 17 24 9 13 1010.9 1010.8 4.6
17/02:30am 26.3 29.5 24.4 89 1.3 ENE 15 24 8 13 1010.9 1010.8 4.6
17/02:00am 26.0 30.1 24.6 92 1.0 NE 11 13 6 7 1010.9 1010.8 4.6
17/01:30am 26.0 32.6 25.3 96 0.5 CALM 0 6 0 3 1011.1 1011.0 4.6
17/01:09am 25.8 32.3 25.1 96 0.5 CALM 0 6 0 3 1011.1 1011.0 4.6
17/01:00am 25.8 30.9 24.9 95 0.6 E 7 9 4 5 1011.2 1011.1 4.6
17/12:57am 25.7 30.4 25.0 96 0.5 ESE 9 9 5 5 1011.2 1011.1 4.6
17/12:34am 25.9 31.4 24.7 93 0.8 ENE 4 9 2 5 1011.3 1011.2 2.8
17/12:30am 25.8 31.6 24.6 93 0.8 ENE 2 9 1 5 1011.3 1011.2 2.8
17/12:14am 26.3 31.4 24.7 91 1.1 WNW 6 11 3 6 1011.6 1011.5 2.2
17/12:00am 26.5 32.5 24.9 91 1.1 WSW 2 9 1 5 1011.5 1011.4 1.4
 
Date/Time
EST
Temp
°C
App
Temp
°C
Dew
Point
°C
Rel
Hum
%
Delta-T
°C
Wind Press
QNH
hPa
Press
MSL
hPa
Rain since
9am
mm
Dir  Spd
km/h
Gust
km/h
Spd
kts
Gust
kts
16/11:30pm 26.6 31.5 24.6 89 1.4 N 7 11 4 6 1011.9 1011.8 0.8
16/11:00pm 26.5 31.4 24.3 88 1.5 E 6 7 3 4 1012.1 1012.0 0.8
16/10:30pm 26.2 30.5 23.7 86 1.7 NNE 7 9 4 5 1012.2 1012.1 0.8
16/10:00pm 25.9 29.7 24.0 89 1.3 N 11 15 6 8 1012.2 1012.1 0.8
16/09:30pm 25.8 27.5 24.1 90 1.2 NNE 22 30 12 16 1011.8 1011.7 0.8
16/09:00pm 27.8 29.3 24.9 84 2.0 ENE 26 37 14 20 1011.5 1011.4 0.2
16/08:30pm 28.1 30.1 24.5 81 2.5 E 22 28 12 15 1011.1 1011.0 0.2
16/08:00pm 28.3 29.8 24.3 79 2.8 ENE 24 30 13 16 1010.7 1010.6 0.2
16/07:30pm 28.3 30.0 24.0 77 3.0 ENE 22 30 12 16 1010.5 1010.4 0.2
16/07:00pm 28.4 30.3 24.4 79 2.8 ENE 22 32 12 17 1010.1 1010.0 0.2
16/06:30pm 28.8 31.3 24.8 79 2.8 ENE 20 28 11 15 1009.6 1009.5 0.2
16/06:00pm 29.0 30.8 24.3 76 3.3 ENE 22 30 12 16 1009.2 1009.1 0.2
16/05:30pm 29.3 30.8 24.4 75 3.4 ENE 24 30 13 16 1008.9 1008.8 0.2
16/05:00pm 29.4 30.9 24.4 74 3.5 ENE 24 30 13 16 1008.5 1008.4 0.2
16/04:30pm 29.8 31.4 24.5 73 3.7 ENE 24 30 13 16 1008.4 1008.3 0.2
16/04:00pm 29.8 30.7 24.0 71 4.0 ENE 26 32 14 17 1008.5 1008.4 0.2
16/03:30pm 29.8 31.3 24.4 73 3.8 ENE 24 30 13 16 1008.6 1008.5 0.2
16/03:00pm 29.4 30.2 24.5 75 3.4 ENE 28 33 15 18 1008.8 1008.7 0.2
16/02:30pm 29.8 30.6 24.4 73 3.8 ENE 28 35 15 19 1008.8 1008.7 0.2
16/02:00pm 29.9 32.9 25.5 77 3.1 ENE 20 28 11 15 1008.8 1008.7 0.2
16/01:30pm 29.5 32.3 24.9 76 3.2 ENE 19 26 10 14 1008.6 1008.5 0.2
16/01:00pm 29.5 32.6 25.4 78 2.9 ENE 19 26 10 14 1008.8 1008.7 0.2
16/12:30pm 29.5 31.7 25.5 79 2.8 ENE 24 32 13 17 1009.4 1009.3 0.2
16/12:00pm 29.8 33.3 24.8 74 3.5 NNE 15 22 8 12 1009.5 1009.4 0.2
16/11:30am 29.3 32.7 24.0 73 3.7 ENE 13 19 7 10 1009.5 1009.4 0.2
16/11:00am 29.1 33.7 24.8 77 3.0 ENE 9 15 5 8 1009.7 1009.6 0.2
16/10:30am 28.6 32.6 24.4 78 2.9 ENE 11 17 6 9 1009.9 1009.8 0.0
16/10:00am 28.0 31.2 24.4 81 2.5 ESE 15 22 8 12 1010.0 1009.9 0.0
16/09:30am 27.6 31.2 24.4 83 2.2 ESE 13 17 7 9 1010.1 1010.0 0.0
16/09:00am 26.9 31.3 25.0 89 1.3 SE 11 15 6 8 1010.4 1010.3 31.4
16/08:30am 26.4 29.5 24.8 91 1.1 SSE 17 24 9 13 1009.9 1009.8 31.4
16/08:00am 25.7 29.0 24.5 93 0.8 SE 15 19 8 10 1009.9 1009.8 31.4
16/07:30am 25.4 29.7 24.2 93 0.8 ESE 9 13 5 7 1009.6 1009.5 31.4
16/07:00am 25.2 28.9 23.9 92 0.9 SE 11 15 6 8 1009.1 1009.0 31.4
16/06:30am 24.6 28.6 23.7 95 0.6 SE 9 13 5 7 1008.6 1008.5 31.4
16/06:00am 24.6 28.2 23.7 95 0.6 ESE 11 13 6 7 1008.5 1008.4 31.4
16/05:30am 24.4 28.0 23.8 96 0.4 SE 11 13 6 7 1008.3 1008.2 31.4
16/05:00am 24.4 28.4 23.7 96 0.5 SSE 9 11 5 6 1008.0 1007.9 31.4
16/04:52am 24.4 28.7 23.7 96 0.5 S 7 9 4 5 1007.7 1007.6 31.4
16/04:30am 24.4 28.4 23.7 96 0.5 S 9 13 5 7 1007.6 1007.5 31.4
16/04:00am 24.5 28.5 23.8 96 0.5 SSW 9 11 5 6 1007.7 1007.6 31.4
16/03:35am 24.3 27.1 23.7 96 0.4 WSW 15 17 8 9 1007.4 1007.3 31.0
16/03:30am 24.3 27.6 23.9 98 0.3 WSW 13 17 7 9 1007.4 1007.3 30.8
16/03:15am 24.5 28.7 24.1 98 0.3 SSW 9 11 5 6 1007.8 1007.7 29.6
16/03:12am 24.5 28.7 24.1 98 0.3 S 9 11 5 6 1007.9 1007.8 29.4
16/03:08am 24.6 28.7 24.0 96 0.4 S 9 11 5 6 1008.0 1007.9 29.0
16/03:00am 24.7 28.9 24.1 96 0.4 S 9 11 5 6 1008.1 1008.0 28.2
16/02:57am 24.7 29.0 24.3 98 0.3 SSW 9 13 5 7 1008.1 1008.0 28.0
16/02:48am 24.7 28.8 24.0 96 0.5 SSW 9 13 5 7 1008.1 1008.0 27.2
16/02:34am 24.8 29.0 24.1 96 0.5 WSW 9 13 5 7 1008.1 1008.0 26.4
16/02:30am 24.7 29.3 23.8 95 0.6 S 6 13 3 7 1008.1 1008.0 26.2
16/02:25am 24.7 29.2 24.0 96 0.5 E 7 13 4 7 1008.2 1008.1 25.0
16/02:16am 24.7 28.0 23.8 95 0.6 E 13 15 7 8 1008.2 1008.1 24.2
16/02:00am 24.7 27.6 23.8 95 0.6 E 15 17 8 9 1008.4 1008.3 23.2
16/01:54am 25.0 28.6 24.3 96 0.5 E 13 17 7 9 1008.5 1008.4 23.2
16/01:52am 25.1 28.7 24.4 96 0.5 ENE 13 17 7 9 1008.4 1008.3 23.2
16/01:37am 25.2 29.8 24.2 94 0.7 E 7 13 4 7 1008.1 1008.0 21.8
16/01:30am 25.0 30.1 24.1 95 0.6 S 4 7 2 4 1008.4 1008.3 21.2
16/01:00am 24.7 27.7 24.0 96 0.5 WNW 15 24 8 13 1008.4 1008.3 20.6
16/12:59am 24.6 27.2 24.0 96 0.4 WNW 17 24 9 13 1008.4 1008.3 20.6
16/12:55am 24.7 27.5 24.3 98 0.3 W 17 24 9 13 1008.2 1008.1 20.6
16/12:32am 25.1 27.2 24.1 94 0.7 NW 20 39 11 21 1008.2 1008.1 19.0
16/12:30am 25.3 28.0 24.1 93 0.8 WNW 17 35 9 19 1008.2 1008.1 18.4
16/12:07am 26.5 32.7 25.2 92 0.9 SW 2 9 1 5 1008.3 1008.2 17.8
16/12:05am 26.5 32.3 25.2 92 0.9 WSW 4 11 2 6 1008.3 1008.2 17.8
16/12:00am 26.4 31.8 25.1 92 0.9 W 6 11 3 6 1008.4 1008.3 17.6
 
Date/Time
EST
Temp
°C
App
Temp
°C
Dew
Point
°C
Rel
Hum
%
Delta-T
°C
Wind Press
QNH
hPa
Press
MSL
hPa
Rain since
9am
mm
Dir  Spd
km/h
Gust
km/h
Spd
kts
Gust
kts
15/11:54pm 26.6 32.4 25.2 92 1.0 WNW 4 9 2 5 1008.5 1008.4 17.6
15/11:30pm 26.7 32.8 25.1 91 1.1 NNW 2 9 1 5 1008.8 1008.7 17.6
15/11:00pm 27.0 31.7 24.9 88 1.5 NNW 9 13 5 7 1009.0 1008.9 17.6
15/10:58pm 26.9 31.6 24.9 89 1.4 N 9 13 5 7 1009.0 1008.9 17.6
15/10:30pm 26.5 32.9 24.9 91 1.1 CALM 0 0 0 0 1008.8 1008.7 17.6
15/10:23pm 26.5 32.9 24.9 91 1.1 CALM 0 0 0 0 1008.8 1008.7 17.4
15/10:00pm 26.8 32.6 24.6 88 1.5 NNE 2 6 1 3 1008.8 1008.7 17.2
15/09:30pm 26.8 32.6 24.0 84 1.9 CALM 0 0 0 0 1008.5 1008.4 17.2
15/09:00pm 26.4 32.5 24.4 89 1.4 CALM 0 0 0 0 1008.1 1008.0 17.2
15/08:30pm 26.6 31.9 24.3 87 1.6 N 4 7 2 4 1007.7 1007.6 17.2
15/08:00pm 26.5 31.9 24.5 89 1.4 N 4 7 2 4 1007.6 1007.5 17.2
15/07:30pm 26.4 30.5 23.9 86 1.7 NNW 9 13 5 7 1007.5 1007.4 17.2
15/07:00pm 26.6 30.1 23.5 83 2.1 NNW 11 15 6 8 1007.3 1007.2 17.2
15/06:45pm 26.6 30.6 23.7 84 2.0 N 9 13 5 7 1007.4 1007.3 17.2
15/06:30pm 26.7 30.4 23.9 84 1.9 N 11 13 6 7 1007.2 1007.1 17.2
15/06:00pm 26.8 30.2 24.0 84 1.9 NNW 13 17 7 9 1006.8 1006.7 17.2
15/05:30pm 26.9 31.5 24.7 88 1.5 NNE 9 11 5 6 1006.3 1006.2 17.2
15/05:20pm 26.9 31.5 24.7 88 1.5 N 9 11 5 6 1006.2 1006.1 17.2
15/05:00pm 26.7 31.3 24.2 86 1.7 NNW 7 11 4 6 1006.3 1006.2 17.2
15/04:30pm 26.9 32.7 24.5 87 1.7 N 2 7 1 4 1006.0 1005.9 17.2
15/04:00pm 26.4 30.8 24.4 89 1.4 SSW 9 13 5 7 1006.2 1006.1 17.2
15/03:30pm 25.7 29.1 24.1 91 1.1 SSW 13 17 7 9 1007.0 1006.9 17.2
15/03:00pm 25.7 30.3 24.1 91 1.1 WNW 7 9 4 5 1007.7 1007.6 17.2
15/02:30pm 25.4 30.0 24.2 93 0.8 NW 7 11 4 6 1008.5 1008.4 16.8
15/02:09pm 25.3 28.9 24.3 94 0.7 NNE 13 17 7 9 1008.6 1008.5 16.4
15/02:00pm 25.3 28.7 24.6 96 0.5 NNE 15 19 8 10 1008.8 1008.7 16.2
15/01:39pm 25.0 28.6 24.3 96 0.5 NW 13 17 7 9 1009.0 1008.9 13.2
15/01:30pm 25.1 27.8 24.1 94 0.7 WNW 17 20 9 11 1008.9 1008.8 12.0
15/01:00pm 25.5 26.7 23.9 91 1.1 WNW 24 30 13 16 1009.0 1008.9 11.2
15/12:30pm 28.4 31.8 24.7 80 2.6 ENE 15 22 8 12 1008.8 1008.7 11.2
15/12:00pm 28.0 31.0 24.6 82 2.4 ENE 17 24 9 13 1008.9 1008.8 11.2
15/11:30am 27.8 31.9 24.6 83 2.2 E 11 15 6 8 1008.8 1008.7 11.0
15/11:00am 26.3 29.9 25.0 92 0.9 ENE 15 19 8 10 1009.1 1009.0 11.0
15/10:30am 25.2 27.6 24.2 94 0.7 NNE 19 22 10 12 1009.5 1009.4 11.0
15/10:00am 24.4 26.3 23.8 96 0.4 NNE 20 26 11 14 1010.0 1009.9 9.8
15/09:41am 24.5 27.6 23.6 95 0.6 N 13 17 7 9 1010.3 1010.2 3.8
15/09:30am 24.6 26.9 23.4 93 0.8 N 17 30 9 16 1010.1 1010.0 2.2
15/09:17am 25.4 27.8 24.2 93 0.8 N 19 28 10 15 1009.8 1009.7 1.0
15/09:10am 25.8 28.9 24.2 91 1.1 NNE 15 22 8 12 1009.9 1009.8 0.2

Other Formats:

Comma delimited format used in spreadsheet applications
http://www.bom.gov.au/fwo/IDQ60801/IDQ60801.94294.axf

JavaScript Object Notation format (JSON) in row-major order
http://www.bom.gov.au/fwo/IDQ60801/IDQ60801.94294.json